Flight Track Log - Related Links

Times and Time Zones

All times are in EDT time to prevent confusion due to time zone crossing. See the EJA728 flight status page for this flight to view local times or setup timezone preferences in your user account.

Time Position Orientation Groundspeed Altitude Reporting Facility
EDT Latitude Longitude Course Direction KTS MPH feet Rate Location/Type
Tue 04:05:33 PM 41.8167 -87.7333 270° West 202 232 2,100  Level Chicago TRACON
Tue 04:06:33 PM 41.8167 -87.8000 270° West 221 254 3,000 450 Climbing Chicago TRACON
Tue 04:07:33 PM 41.7833 -87.9000 246° West 250 288 3,000  Level Chicago TRACON
Tue 04:08:13 PM 41.7711 -87.9417 249° West 243 280 3,000  Level Chicago Center
Tue 04:09:15 PM 41.7492 -88.0317 252° West 251 289 3,000 244 Level Chicago Center
Tue 04:10:16 PM 41.7467 -88.1253 268° West 255 293 3,500 2,244 Climbing Chicago Center
Tue 04:11:18 PM 41.7661 -88.2178 286° West 259 298 7,600 4,210 Climbing Chicago Center
Tue 04:12:20 PM 41.7806 -88.3222 281° West 251 289 12,200 2,710 Climbing Chicago Center
Tue 04:13:22 PM 41.7786 -88.4300 269° West 289 333 13,200 968 Climbing Chicago Center
Tue 04:14:24 PM 41.7753 -88.5514 268° West 323 372 14,200 968 Climbing Chicago Center
Tue 04:15:26 PM 41.8039 -88.6661 289° West 345 397 15,200 1,694 Climbing Chicago Center
Tue 04:16:28 PM 41.7958 -88.7847 265° West 328 377 17,700 2,758 Climbing Chicago Center
Tue 04:17:30 PM 41.7878 -88.9269 266° West 322 371 20,900 1,935 Climbing Chicago Center
Tue 04:18:32 PM 41.7875 -89.0583 270° West 348 400 21,700 1,024 Climbing Chicago Center
Tue 04:19:33 PM 41.7875 -89.1989 270° West 373 429 23,000 634 Climbing Chicago Center
Tue 04:20:35 PM 41.7875 -89.3508 270° West 399 459 23,000  Level Chicago Center
Tue 04:21:37 PM 41.7861 -89.5122 269° West 426 490 23,000  Level Chicago Center
Tue 04:22:39 PM 41.7856 -89.7036 270° West 442 509 23,000 194 Level Chicago Center
Tue 04:23:41 PM 41.7847 -89.8689 270° West 445 512 23,400 1,984 Climbing Chicago Center
Tue 04:24:43 PM 41.7839 -90.0233 270° West 426 490 27,100 2,710 Climbing Chicago Center
Tue 04:25:45 PM 41.7822 -90.1603 269° West 390 449 29,000 1,742 Climbing Chicago Center
Tue 04:26:47 PM 41.7800 -90.3000 269° West 381 438 30,700 1,258 Climbing Chicago Center
Tue 04:27:49 PM 41.7772 -90.4425 269° West 383 441 31,600 1,016 Climbing Chicago Center
Tue 04:28:51 PM 41.7753 -90.6122 269° West 383 441 32,800 1,065 Climbing Chicago Center
Tue 04:29:53 PM 41.7719 -90.7550 268° West 383 441 33,800 968 Climbing Chicago Center
Tue 04:30:55 PM 41.7700 -90.8950 269° West 381 438 34,800 968 Climbing Chicago Center
Tue 04:31:57 PM 41.7683 -91.0333 269° West 376 433 35,800 581 Climbing Chicago Center
Tue 04:32:59 PM 41.7653 -91.1719 268° West 374 430 36,000 97 Climbing Chicago Center
Tue 04:34:01 PM 41.7619 -91.3422 269° West 379 436 36,000  Level Chicago Center
Tue 04:35:03 PM 41.7583 -91.4883 268° West 389 448 36,000  Level Chicago Center
Tue 04:36:05 PM 41.7553 -91.6353 268° West 394 453 36,000  Level Chicago Center
Tue 04:37:07 PM 41.7511 -91.7819 268° West 395 455 36,000  Level Chicago Center
Tue 04:38:09 PM 41.7472 -91.9297 268° West 397 457 36,000  Level Chicago Center
Tue 04:39:11 PM 41.7433 -92.0764 268° West 396 456 36,000  Level Chicago Center
Tue 04:40:13 PM 41.7383 -92.2519 268° West 395 455 36,000  Level Chicago Center
Tue 04:41:15 PM 41.7336 -92.3986 268° West 395 455 36,000  Level Chicago Center
Tue 04:42:18 PM 41.7286 -92.5447 267° West 394 453 36,000  Level Chicago Center
Tue 04:43:20 PM 41.7236 -92.6917 267° West 397 457 36,000  Level Chicago Center
Tue 04:44:22 PM 41.7194 -92.8483 268° West 399 459 36,000  Level Chicago Center
Tue 04:45:24 PM 41.7131 -92.9958 267° West 401 461 36,000  Level Chicago Center
Tue 04:46:26 PM 41.7069 -93.1708 267° West 398 458 36,000  Level Chicago Center
Tue 04:47:28 PM 41.7011 -93.3175 267° West 399 459 36,000  Level Chicago Center
Tue 04:48:30 PM 41.6953 -93.4647 267° West 399 459 36,000  Level Chicago Center
Tue 04:49:32 PM 41.6892 -93.6111 267° West 397 457 36,000  Level Chicago Center
Tue 04:50:34 PM 41.6833 -93.7569 267° West 396 456 36,000  Level Chicago Center
Tue 04:51:36 PM 41.6767 -93.9314 267° West 393 452 36,000  Level Chicago Center
Tue 04:52:38 PM 41.6692 -94.0772 266° West 395 455 36,000  Level Chicago Center
Tue 04:53:51 PM 41.6608 -94.2542 266° West 395 455 36,000  Level Minneapolis Center
Tue 04:54:53 PM 41.6544 -94.3994 267° West 395 455 36,000  Level Minneapolis Center
Tue 04:55:54 PM 41.6475 -94.5461 266° West 397 457 36,000  Level Minneapolis Center
Tue 04:56:56 PM 41.6414 -94.6925 267° West 397 457 36,000  Level Minneapolis Center
Tue 04:57:58 PM 41.6325 -94.8394 265° West 398 458 36,000  Level Minneapolis Center
Tue 04:59:00 PM 41.6236 -95.0144 266° West 392 451 36,000  Level Minneapolis Center
Tue 05:00:03 PM 41.6161 -95.1611 266° West 396 456 36,000  Level Minneapolis Center
Tue 05:01:05 PM 41.6075 -95.3078 266° West 397 457 36,000  Level Minneapolis Center
Tue 05:02:07 PM 41.5992 -95.4558 266° West 400 460 36,000  Level Minneapolis Center
Tue 05:03:09 PM 41.5897 -95.6025 265° West 400 460 36,000  Level Minneapolis Center
Tue 05:04:11 PM 41.5808 -95.7583 266° West 400 460 36,000  Level Minneapolis Center
Tue 05:05:13 PM 41.5731 -95.9058 266° West 399 459 36,000  Level Minneapolis Center
Tue 05:06:15 PM 41.5614 -96.0844 265° West 401 461 36,000  Level Minneapolis Center
Tue 05:07:17 PM 41.5517 -96.2319 265° West 399 459 36,000  Level Minneapolis Center
Tue 05:08:19 PM 41.5428 -96.3628 265° West 398 458 36,000  Level Minneapolis Center
Tue 05:09:21 PM 41.5314 -96.5381 265° West 398 458 36,000  Level Minneapolis Center
Tue 05:10:22 PM 41.5211 -96.6828 265° West 393 452 36,000  Level Minneapolis Center
Tue 05:11:24 PM 41.5114 -96.8286 265° West 394 453 36,000  Level Minneapolis Center
Tue 05:12:26 PM 41.5006 -96.9725 264° West 393 452 36,000  Level Minneapolis Center
Tue 05:13:28 PM 41.4914 -97.1172 265° West 391 450 36,000  Level Minneapolis Center
Tue 05:14:30 PM 41.4825 -97.2333 264° West 393 452 36,000  Level Minneapolis Center
Tue 05:15:32 PM 41.4692 -97.4075 264° West 395 455 36,000  Level Minneapolis Center
Tue 05:16:34 PM 41.4561 -97.5822 264° West 395 455 36,000  Level Minneapolis Center
Tue 05:17:35 PM 41.4453 -97.7275 264° West 396 456 36,000  Level Minneapolis Center
Tue 05:18:37 PM 41.4339 -97.8728 264° West 395 455 36,000  Level Minneapolis Center
Tue 05:19:39 PM 41.4214 -98.0192 264° West 397 457 36,000  Level Minneapolis Center
Tue 05:20:41 PM 41.4092 -98.1847 264° West 396 456 36,000  Level Minneapolis Center
Tue 05:21:42 PM 41.3969 -98.3306 264° West 397 457 36,000  Level Minneapolis Center
Tue 05:22:44 PM 41.3842 -98.4789 263° West 397 457 36,000  Level Minneapolis Center
Tue 05:23:46 PM 41.3711 -98.6319 264° West 398 458 36,000  Level Minneapolis Center
Tue 05:24:48 PM 41.3583 -98.7786 263° West 399 459 36,000  Level Minneapolis Center
Tue 05:25:29 PM 41.3492 -98.8814 263° West 399 459 36,000  Level Denver Center
Tue 05:26:30 PM 41.3369 -99.0253 264° West 398 458 36,000  Level Denver Center
Tue 05:27:32 PM 41.3244 -99.1694 263° West 396 456 36,000  Level Denver Center
Tue 05:28:46 PM 41.3086 -99.3411 263° West 392 451 36,000  Level Denver Center
Tue 05:29:47 PM 41.2953 -99.4939 263° West 395 455 36,000  Level Denver Center
Tue 05:30:49 PM 41.2794 -99.6550 263° West 395 455 36,000  Level Denver Center
Tue 05:31:51 PM 41.2664 -99.7936 263° West 395 455 36,000  Level Denver Center
Tue 05:32:52 PM 41.2497 -99.9542 262° West 394 453 36,000  Level Denver Center
Tue 05:33:54 PM 41.2367 -100.0922 263° West 394 453 36,000  Level Denver Center
Tue 05:34:56 PM 41.2228 -100.2303 262° West 395 455 36,000  Level Denver Center
Tue 05:35:58 PM 41.2069 -100.3897 263° West 392 451 36,000  Level Denver Center
Tue 05:36:59 PM 41.1931 -100.5244 262° West 389 448 36,000  Level Denver Center
Tue 05:38:01 PM 41.1772 -100.6806 262° West 386 444 36,000  Level Denver Center
Tue 05:39:03 PM 41.1625 -100.8150 262° West 387 445 36,000  Level Denver Center
Tue 05:40:05 PM 41.1467 -100.9706 262° West 385 443 36,000  Level Denver Center
Tue 05:41:06 PM 41.1317 -101.1061 262° West 390 449 36,000  Level Denver Center
Tue 05:42:08 PM 41.1158 -101.2642 262° West 390 449 36,000  Level Denver Center
Tue 05:43:10 PM 41.1006 -101.3997 262° West 390 449 36,000  Level Denver Center
Tue 05:44:11 PM 41.0828 -101.5597 262° West 393 452 36,000  Level Denver Center
Tue 05:45:13 PM 41.0672 -101.6964 261° West 394 453 36,000  Level Denver Center
Tue 05:46:15 PM 41.0489 -101.8564 261° West 394 453 36,000  Level Denver Center
Tue 05:47:17 PM 41.0325 -101.9939 261° West 396 456 36,000  Level Denver Center
Tue 05:48:18 PM 41.0147 -102.1533 262° West 394 453 36,000  Level Denver Center
Tue 05:49:20 PM 40.9975 -102.2903 261° West 394 453 36,000  Level Denver Center
Tue 05:50:22 PM 40.9817 -102.4261 261° West 391 450 36,000  Level Denver Center
Tue 05:51:24 PM 40.9625 -102.5836 261° West 389 448 36,000  Level Denver Center
Tue 05:52:26 PM 40.9461 -102.7200 261° West 392 451 36,000  Level Denver Center
Tue 05:53:27 PM 40.9267 -102.8792 261° West 394 453 36,000  Level Denver Center
Tue 05:54:29 PM 40.9097 -103.0156 261° West 393 452 36,000  Level Denver Center
Tue 05:55:31 PM 40.8906 -103.1594 260° West 395 455 36,000  Level Denver Center
Tue 05:56:33 PM 40.8728 -103.3039 261° West 395 455 36,000  Level Denver Center
Tue 05:57:35 PM 40.8539 -103.4486 260° West 397 457 36,000  Level Denver Center
Tue 05:58:36 PM 40.8319 -103.6169 260° West 396 456 36,000  Level Denver Center
Tue 05:59:38 PM 40.8131 -103.7628 260° West 400 460 36,000  Level Denver Center
Tue 06:00:40 PM 40.7947 -103.9097 261° West 404 465 36,000  Level Denver Center
Tue 06:01:42 PM 40.7744 -104.0558 260° West 404 465 36,000  Level Denver Center
Tue 06:02:43 PM 40.7550 -104.2053 260° West 410 472 36,000  Level Denver Center
Tue 06:03:46 PM 40.7339 -104.3517 259° West 406 467 36,000  Level Denver Center
Tue 06:04:47 PM 40.7139 -104.5014 260° West 410 472 36,000  Level Denver Center
Tue 06:05:49 PM 40.6936 -104.6444 259° West 398 458 36,000  Level Denver Center
Tue 06:06:51 PM 40.6706 -104.8086 260° West 391 450 36,000  Level Denver Center
Tue 06:07:52 PM 40.6506 -104.9481 259° West 387 445 36,000  Level Denver Center
Tue 06:08:54 PM 40.6308 -105.0872 259° West 385 443 36,000  Level Denver Center
Tue 06:09:56 PM 40.6103 -105.2236 259° West 380 437 36,000  Level Denver Center
Tue 06:10:58 PM 40.5903 -105.3600 259° West 380 437 36,000  Level Denver Center
Tue 06:12:00 PM 40.5711 -105.4956 259° West 375 432 36,000  Level Denver Center
Tue 06:13:02 PM 40.5511 -105.6286 259° West 371 427 36,000  Level Denver Center
Tue 06:14:03 PM 40.5300 -105.7617 258° West 370 426 36,000  Level Denver Center
Tue 06:15:05 PM 40.5072 -105.9186 259° West 372 428 36,000  Level Denver Center
Tue 06:16:07 PM 40.4867 -106.0533 259° West 375 432 36,000  Level Denver Center
Tue 06:17:09 PM 40.4672 -106.1811 259° West 381 438 36,000  Level Denver Center
Tue 06:18:11 PM 40.4431 -106.3358 258° West 387 445 36,000  Level Denver Center
Tue 06:19:12 PM 40.4236 -106.4669 259° West 383 441 36,000  Level Denver Center
Tue 06:20:14 PM 40.4006 -106.6075 258° West 383 441 36,000  Level Denver Center
Tue 06:21:16 PM 40.3792 -106.7422 258° West 380 437 36,000  Level Denver Center
Tue 06:22:18 PM 40.3542 -106.9003 258° West 381 438 36,000  Level Denver Center
Tue 06:23:20 PM 40.3333 -107.0281 258° West 376 433 36,000  Level Denver Center
Tue 06:24:22 PM 40.3094 -107.1775 258° West 375 432 36,000  Level Denver Center
Tue 06:25:24 PM 40.2883 -107.3056 258° West 377 434 36,000  Level Denver Center
Tue 06:26:25 PM 40.2675 -107.4333 258° West 377 434 36,000  Level Denver Center
Tue 06:27:27 PM 40.2422 -107.5828 258° West 377 434 36,000  Level Denver Center
Tue 06:28:29 PM 40.2203 -107.7100 257° West 375 432 36,000  Level Denver Center
Tue 06:29:31 PM 40.1958 -107.8594 258° West 377 434 36,000  Level Denver Center
Tue 06:30:33 PM 40.1736 -107.9894 257° West 382 440 36,000  Level Denver Center
Tue 06:31:35 PM 40.1483 -108.1392 258° West 378 435 36,000  Level Denver Center
Tue 06:32:37 PM 40.1247 -108.2672 256° West 381 438 36,000  Level Denver Center
Tue 06:33:39 PM 40.0997 -108.4197 258° West 385 443 36,000  Level Denver Center
Tue 06:34:40 PM 40.0764 -108.5503 257° West 387 445 36,000  Level Denver Center
Tue 06:35:42 PM 40.0478 -108.7039 256° West 392 451 36,000  Level Denver Center
Tue 06:36:44 PM 40.0256 -108.8356 258° West 391 450 36,000  Level Denver Center
Tue 06:37:55 PM 39.9936 -109.0111 257° West 392 451 36,000  Level Salt Lake Center
Tue 06:38:57 PM 39.9692 -109.1456 257° West 398 458 36,000  Level Salt Lake Center
Tue 06:39:50 PM 39.9436 -109.2783 256° West 398 458 36,000  Level Denver Center
Tue 06:40:52 PM 39.9194 -109.4122 257° West 398 458 36,000  Level Denver Center
Tue 06:41:53 PM 39.8911 -109.5658 257° West 394 453 36,000  Level Denver Center
Tue 06:42:55 PM 39.8656 -109.7000 256° West 398 458 36,000  Level Denver Center
Tue 06:43:57 PM 39.8408 -109.8339 257° West 399 459 36,000  Level Denver Center
Tue 06:44:59 PM 39.8117 -109.9903 256° West 399 459 36,000  Level Denver Center
Tue 06:46:07 PM 39.7819 -110.1469 256° West 400 460 36,000  Level Salt Lake Center
Tue 06:47:08 PM 39.7558 -110.2814 256° West 401 461 36,000  Level Salt Lake Center
Tue 06:48:10 PM 39.7267 -110.4392 257° West 402 463 36,000  Level Salt Lake Center
Tue 06:49:11 PM 39.6997 -110.5747 256° West 404 465 36,000  Level Salt Lake Center
Tue 06:50:13 PM 39.6686 -110.7331 256° West 406 467 36,000  Level Salt Lake Center
Tue 06:51:14 PM 39.6417 -110.8697 256° West 408 470 36,000  Level Salt Lake Center
Tue 06:52:16 PM 39.6139 -111.0067 255° West 410 472 36,000  Level Salt Lake Center
Tue 06:53:17 PM 39.5831 -111.1661 256° West 410 472 36,000  Level Salt Lake Center
Tue 06:54:19 PM 39.5533 -111.3125 255° West 412 474 36,000  Level Salt Lake Center
Tue 06:55:20 PM 39.5236 -111.4561 255° West 413 475 36,000  Level Salt Lake Center
Tue 06:56:22 PM 39.4950 -111.6006 256° West 413 475 36,000  Level Salt Lake Center
Tue 06:57:23 PM 39.4650 -111.7439 255° West 413 475 36,000  Level Salt Lake Center
Tue 06:58:24 PM 39.4350 -111.8875 255° West 413 475 36,000  Level Salt Lake Center
Tue 06:59:26 PM 39.4053 -112.0303 255° West 414 476 36,000  Level Salt Lake Center
Tue 07:00:27 PM 39.3750 -112.1753 255° West 416 479 36,000  Level Salt Lake Center
Tue 07:01:29 PM 39.3400 -112.3403 255° West 401 461 36,000  Level Salt Lake Center
Tue 07:02:30 PM 39.3103 -112.4769 254° West 396 456 36,000  Level Salt Lake Center
Tue 07:03:32 PM 39.2800 -112.6142 254° West 396 456 36,000  Level Salt Lake Center
Tue 07:04:33 PM 39.2458 -112.7569 253° West 394 453 36,000  Level Salt Lake Center
Tue 07:05:35 PM 39.2153 -112.8936 254° West 397 457 36,000  Level Salt Lake Center
Tue 07:06:36 PM 39.1844 -113.0300 254° West 398 458 36,000  Level Salt Lake Center
Tue 07:07:37 PM 39.1528 -113.1636 253° West 394 453 36,000  Level Salt Lake Center
Tue 07:08:39 PM 39.1206 -113.2994 253° West 396 456 36,000  Level Salt Lake Center
Tue 07:09:40 PM 39.0897 -113.4369 254° West 400 460 36,000  Level Salt Lake Center
Tue 07:10:42 PM 39.0578 -113.5725 253° West 398 458 36,000  Level Salt Lake Center
Tue 07:11:43 PM 39.0256 -113.7108 253° West 403 464 36,000  Level Salt Lake Center
Tue 07:12:45 PM 38.9869 -113.8744 253° West 402 463 36,000  Level Salt Lake Center
Tue 07:13:46 PM 38.9542 -114.0100 253° West 399 459 36,000  Level Salt Lake Center
Tue 07:14:48 PM 38.9214 -114.1467 253° West 400 460 36,000  Level Salt Lake Center
Tue 07:15:49 PM 38.8892 -114.2833 253° West 401 461 36,000  Level Salt Lake Center
Tue 07:16:51 PM 38.8553 -114.4194 252° West 402 463 36,000  Level Salt Lake Center
Tue 07:17:52 PM 38.8225 -114.5567 253° West 405 466 36,000  Level Salt Lake Center
Tue 07:18:54 PM 38.7892 -114.6936 253° West 404 465 36,000  Level Salt Lake Center
Tue 07:19:56 PM 38.7472 -114.8581 252° West 405 466 36,000  Level Salt Lake Center
Tue 07:20:57 PM 38.7125 -114.9961 252° West 408 470 36,000  Level Salt Lake Center
Tue 07:21:59 PM 38.6764 -115.1372 252° West 416 479 36,000  Level Salt Lake Center
Tue 07:23:00 PM 38.6419 -115.2744 252° West 411 473 36,000  Level Salt Lake Center
Tue 07:24:02 PM 38.6075 -115.4089 252° West 406 467 36,000  Level Salt Lake Center
Tue 07:25:04 PM 38.5742 -115.5489 253° West 409 471 36,000  Level Salt Lake Center
Tue 07:26:06 PM 38.5386 -115.6881 252° West 412 474 36,000  Level Salt Lake Center
Tue 07:27:07 PM 38.4958 -115.8547 252° West 412 474 36,000  Level Salt Lake Center
Tue 07:28:08 PM 38.4589 -115.9931 251° West 411 473 36,000  Level Salt Lake Center
Tue 07:29:10 PM 38.4222 -116.1342 252° West 416 479 36,000  Level Salt Lake Center
Tue 07:29:57 PM 38.3917 -116.2489 251° West 426 490 36,000  Level Oakland Center
Tue 07:30:59 PM 38.3533 -116.3939 251° West 433 498 36,000  Level Oakland Center
Tue 07:32:00 PM 38.3150 -116.5400 252° West 434 499 36,000  Level Oakland Center
Tue 07:33:01 PM 38.2767 -116.6856 251° West 435 501 36,000  Level Oakland Center
Tue 07:34:02 PM 38.2375 -116.8328 251° West 436 502 36,000  Level Oakland Center
Tue 07:35:03 PM 38.1983 -116.9792 251° West 437 503 36,000 -231 Level Oakland Center
Tue 07:35:20 PM 38.1819 -117.0397 251° West 439 505 35,700 -984 Descending Salt Lake Center
Tue 07:36:04 PM 38.1547 -117.1400 251° West 441 507 35,000 -962 Descending Oakland Center
Tue 07:37:06 PM 38.1142 -117.2861 251° West 440 506 34,000 -488 Descending Oakland Center
Tue 07:38:07 PM 38.0808 -117.4358 254° West 437 503 34,000  Level Oakland Center
Tue 07:39:08 PM 38.0458 -117.5861 254° West 441 507 34,000  Level Oakland Center
Tue 07:40:09 PM 38.0100 -117.7364 253° West 444 511 34,000  Level Oakland Center
Tue 07:41:10 PM 37.9897 -117.8892 260° West 439 505 34,000  Level Oakland Center
Tue 07:42:11 PM 37.9739 -118.0442 263° West 442 509 34,000  Level Oakland Center
Tue 07:43:12 PM 37.9564 -118.1986 262° West 443 510 34,000  Level Oakland Center
Tue 07:44:13 PM 37.9400 -118.3533 262° West 442 509 34,000  Level Oakland Center
Tue 07:45:15 PM 37.9231 -118.5078 262° West 442 509 34,000  Level Oakland Center
Tue 07:46:16 PM 37.9017 -118.6936 262° West 444 511 34,000  Level Oakland Center
Tue 07:47:17 PM 37.8858 -118.8492 263° West 445 512 34,000  Level Oakland Center
Tue 07:48:18 PM 37.8678 -119.0050 262° West 445 512 34,000  Level Oakland Center
Tue 07:49:19 PM 37.8492 -119.1647 262° West 450 518 34,000  Level Oakland Center
Tue 07:50:20 PM 37.8311 -119.3192 262° West 446 513 34,000  Level Oakland Center
Tue 07:51:22 PM 37.8128 -119.4725 261° West 441 507 34,000  Level Oakland Center
Tue 07:52:23 PM 37.7956 -119.6231 262° West 436 502 34,000  Level Oakland Center
Tue 07:53:24 PM 37.7781 -119.7761 262° West 438 504 34,000  Level Oakland Center
Tue 07:54:25 PM 37.7586 -119.9303 261° West 443 510 34,000 -689 Level Oakland Center
Tue 07:55:26 PM 37.7403 -120.0783 261° West 429 494 32,600 -1,869 Descending Oakland Center
Tue 07:56:27 PM 37.7222 -120.2181 261° West 407 468 30,200 -2,098 Descending Oakland Center
Tue 07:57:29 PM 37.7075 -120.3414 261° West 362 417 28,300 -1,805 Descending Oakland Center
Tue 07:58:30 PM 37.6931 -120.4564 261° West 337 388 26,500 -1,869 Descending Oakland Center
Tue 07:59:31 PM 37.6783 -120.5717 261° West 333 383 24,500 -2,085 Descending Oakland Center
Tue 08:00:28 PM 37.6667 -120.7000 263° West 335 386 22,400 -2,103 Descending Northern Cal TRACON
Tue 08:01:28 PM 37.6500 -120.8167 260° West 343 395 20,400 -1,900 Descending Northern Cal TRACON
Tue 08:02:28 PM 37.6333 -120.9333 260° West 349 402 18,600 -1,785 Descending Northern Cal TRACON
Tue 08:03:29 PM 37.6167 -121.0500 260° West 346 398 16,800 -1,850 Descending Northern Cal TRACON
Tue 08:04:28 PM 37.6000 -121.1833 261° West 346 398 14,900 -1,714 Descending Northern Cal TRACON
Tue 08:05:28 PM 37.5833 -121.2833 258° West 326 375 13,400 -1,526 Descending Northern Cal TRACON
Tue 08:06:22 PM 37.5833 -121.3833 270° West 315 362 12,000 -1,140 Descending Northern Cal TRACON
Tue 08:07:29 PM 37.5667 -121.5000 260° West 308 354 11,100 -472 Descending Northern Cal TRACON
Tue 08:08:29 PM 37.5500 -121.6167 260° West 319 367 11,000 -900 Descending Northern Cal TRACON
Tue 08:09:29 PM 37.5333 -121.7167 258° West 317 365 9,300 -1,450 Descending Northern Cal TRACON
Tue 08:10:29 PM 37.5000 -121.8167 247° West 296 341 8,100 -700 Descending Northern Cal TRACON
Tue 08:11:29 PM 37.4833 -121.9167 258° West 247 284 7,900 -800 Descending Northern Cal TRACON
Tue 08:12:29 PM 37.5000 -121.9833 288° West 221 254 6,500 -1,250 Descending Northern Cal TRACON
Tue 08:13:29 PM 37.5167 -122.0500 288° West 216 249 5,400 -1,250 Descending Northern Cal TRACON
Tue 08:14:29 PM 37.5333 -122.1167 288° West 197 227 4,000 -1,275 Descending Northern Cal TRACON
Tue 08:14:49 PM 37.5419 -122.1308 307° West 208 239 3,700 -815 Descending Oakland Center
Tue 08:15:50 PM 37.5592 -122.1867 291° West 188 216 2,900 -829 Descending Oakland Center
Tue 08:16:52 PM 37.5767 -122.2431 291° West 178 205 2,000 -732 Descending Oakland Center
Tue 08:17:53 PM 37.5864 -122.2983 283° West 169 194 1,400 -787 Descending Oakland Center
Tue 08:18:54 PM 37.6067 -122.3472 298° West 146 168 400 -590 Descending Oakland Center
Tue 08:19:55 PM 37.6228 -122.3825 300° West 141 162 200 -197 Descending Oakland Center

Login

Don't have an account? Register now (free) for customized features, flight alerts, and more!